createdAt,value
2023-04-03T00:00:20.735Z,73.30
2023-04-03T00:03:22.901Z,73.80
2023-04-03T00:06:26.049Z,73.40
2023-04-03T00:09:28.036Z,74.00
2023-04-03T00:12:30.049Z,73.50
2023-04-03T00:15:32.193Z,73.60
2023-04-03T00:18:34.200Z,73.10
2023-04-03T00:21:36.860Z,72.20
2023-04-03T00:24:38.923Z,71.90
2023-04-03T00:27:41.297Z,71.40
2023-04-03T00:30:45.214Z,70.90
2023-04-03T00:33:47.418Z,71.40
2023-04-03T00:36:49.525Z,70.80
2023-04-03T00:39:51.584Z,70.70
2023-04-03T00:42:58.159Z,71.10
2023-04-03T00:46:01.822Z,70.30
2023-04-03T00:49:04.027Z,71.10
2023-04-03T00:52:09.937Z,71.30
2023-04-03T00:55:12.170Z,70.20
2023-04-03T00:58:16.765Z,71.00
2023-04-03T01:01:26.156Z,71.10
2023-04-03T01:04:33.202Z,71.00
2023-04-03T01:07:38.124Z,71.30
2023-04-03T01:10:40.650Z,70.50
2023-04-03T01:13:42.650Z,71.10
2023-04-03T01:16:52.383Z,71.00
2023-04-03T01:20:23.812Z,71.40
2023-04-03T01:23:34.609Z,71.20
2023-04-03T01:26:36.882Z,71.70
2023-04-03T01:29:40.140Z,71.70
2023-04-03T01:32:42.230Z,71.00
2023-04-03T01:35:44.317Z,72.00
2023-04-03T01:38:46.547Z,72.10
2023-04-03T01:41:49.203Z,72.60
2023-04-03T01:44:51.802Z,72.80
2023-04-03T01:47:53.818Z,73.00
2023-04-03T01:50:56.386Z,73.10
2023-04-03T01:53:58.428Z,73.50
2023-04-03T01:57:00.721Z,73.80
2023-04-03T02:00:04.777Z,73.90
2023-04-03T02:03:08.054Z,73.80
2023-04-03T02:06:12.730Z,74.00
2023-04-03T02:09:14.847Z,73.90
2023-04-03T02:12:19.722Z,73.70
2023-04-03T02:15:21.843Z,73.70
2023-04-03T02:18:23.915Z,73.70
2023-04-03T02:21:25.890Z,74.10
2023-04-03T02:24:28.575Z,74.30
2023-04-03T02:27:30.614Z,74.60
2023-04-03T02:30:32.620Z,74.30
2023-04-03T02:33:37.626Z,74.40
2023-04-03T02:36:39.727Z,74.30
2023-04-03T02:39:41.836Z,74.80
2023-04-03T02:42:43.806Z,75.20
2023-04-03T02:45:46.025Z,75.60
2023-04-03T02:48:48.169Z,75.30
2023-04-03T02:51:50.185Z,75.40
2023-04-03T02:54:53.226Z,75.60
2023-04-03T02:57:55.446Z,75.10
2023-04-03T03:00:57.426Z,75.10
2023-04-03T03:04:00.483Z,75.50
2023-04-03T03:07:03.823Z,75.80
2023-04-03T03:10:06.237Z,76.00
2023-04-03T03:13:08.266Z,76.60
2023-04-03T03:16:10.557Z,76.30
2023-04-03T03:19:12.912Z,76.30
2023-04-03T03:22:17.934Z,76.70
2023-04-03T03:25:20.146Z,76.70
2023-04-03T03:28:22.172Z,76.90
2023-04-03T03:31:24.472Z,77.10
2023-04-03T03:34:26.667Z,77.80
2023-04-03T03:37:28.811Z,77.70
2023-04-03T03:40:30.926Z,77.60
2023-04-03T03:43:33.041Z,77.60
2023-04-03T03:46:35.202Z,77.10
2023-04-03T03:49:37.265Z,77.30
2023-04-03T03:52:39.920Z,77.40
2023-04-03T03:55:42.377Z,76.70
2023-04-03T03:58:44.493Z,78.50
2023-04-03T04:01:46.550Z,78.80
2023-04-03T04:04:49.542Z,79.70
2023-04-03T04:07:52.109Z,80.30
2023-04-03T04:10:54.740Z,80.30
2023-04-03T04:13:57.072Z,80.10
2023-04-03T04:16:59.227Z,80.30
2023-04-03T04:20:01.764Z,80.40
2023-04-03T04:23:03.911Z,80.50
2023-04-03T04:26:06.131Z,81.00
2023-04-03T04:29:09.750Z,81.40
2023-04-03T04:32:11.774Z,81.40
2023-04-03T04:35:16.656Z,81.30
2023-04-03T04:38:19.105Z,81.10
2023-04-03T04:41:24.098Z,81.40
2023-04-03T04:44:26.298Z,81.00
2023-04-03T04:47:31.385Z,80.70
2023-04-03T04:50:36.108Z,81.00
2023-04-03T04:53:38.905Z,80.50
2023-04-03T04:56:41.037Z,81.20
2023-04-03T04:59:43.178Z,81.20
2023-04-03T05:02:45.487Z,81.60
2023-04-03T05:05:47.530Z,82.20
2023-04-03T05:08:49.662Z,82.40
2023-04-03T05:11:51.703Z,83.30
2023-04-03T05:14:53.659Z,83.30
2023-04-03T05:17:55.761Z,84.00
2023-04-03T05:20:58.880Z,83.10
2023-04-03T05:24:03.854Z,83.10
2023-04-03T05:27:06.166Z,83.40
2023-04-03T05:30:09.175Z,83.40
2023-04-03T05:33:11.485Z,83.20
2023-04-03T05:36:14.220Z,83.20
2023-04-03T05:39:16.536Z,84.10
2023-04-03T05:42:20.584Z,84.00
2023-04-03T05:45:23.751Z,84.40
2023-04-03T05:48:26.632Z,84.40
2023-04-03T05:51:37.249Z,84.40
2023-04-03T05:54:39.332Z,83.80
2023-04-03T05:57:41.855Z,83.70
2023-04-03T06:00:44.130Z,83.50
2023-04-03T06:03:46.299Z,83.30
2023-04-03T06:06:52.709Z,83.10
2023-04-03T06:09:57.659Z,82.60
2023-04-03T06:12:59.689Z,82.50
2023-04-03T06:16:03.656Z,83.30
2023-04-03T06:19:06.972Z,83.60
2023-04-03T06:22:09.121Z,83.90
2023-04-03T06:25:11.435Z,83.40
2023-04-03T06:28:13.620Z,83.40
2023-04-03T06:31:15.728Z,83.50
2023-04-03T06:34:19.777Z,83.90
2023-04-03T06:37:24.145Z,84.00
2023-04-03T06:40:27.593Z,83.30
2023-04-03T06:43:33.915Z,83.00
2023-04-03T06:46:36.731Z,82.40
2023-04-03T06:49:38.931Z,81.70
2023-04-03T06:52:42.709Z,82.10
2023-04-03T06:55:45.311Z,82.50
2023-04-03T06:58:47.760Z,81.10
2023-04-03T07:01:50.327Z,80.50
2023-04-03T07:04:52.882Z,80.00
2023-04-03T07:07:55.396Z,79.40
2023-04-03T07:10:57.513Z,77.50
2023-04-03T07:13:59.642Z,77.40
2023-04-03T07:17:01.741Z,77.10
2023-04-03T07:20:05.473Z,76.50
2023-04-03T07:23:07.748Z,75.30
2023-04-03T07:26:10.550Z,74.80
2023-04-03T07:29:12.553Z,72.60
2023-04-03T07:32:16.581Z,70.50
2023-04-03T07:35:20.104Z,69.40
2023-04-03T07:38:25.306Z,67.00
2023-04-03T07:41:29.716Z,65.60
2023-04-03T07:44:32.136Z,65.60
2023-04-03T07:47:34.149Z,64.00
2023-04-03T07:50:37.335Z,63.70
2023-04-03T07:53:39.422Z,60.80
2023-04-03T07:56:41.563Z,61.50
2023-04-03T07:59:43.964Z,57.50
2023-04-03T08:02:51.557Z,57.00
2023-04-03T08:05:54.701Z,59.00
2023-04-03T08:08:57.103Z,57.00
2023-04-03T08:11:59.769Z,59.50
2023-04-03T08:15:02.489Z,58.90
2023-04-03T08:18:04.815Z,58.30
2023-04-03T08:21:08.601Z,59.30
2023-04-03T08:24:11.248Z,57.20
2023-04-03T08:27:13.485Z,58.30
2023-04-03T08:30:15.871Z,55.60
2023-04-03T08:33:17.983Z,53.60
2023-04-03T08:36:22.873Z,53.70
2023-04-03T08:39:24.987Z,52.10
2023-04-03T08:42:54.789Z,53.30
2023-04-03T08:45:58.805Z,53.70
2023-04-03T08:49:01.556Z,55.50
2023-04-03T08:52:16.170Z,55.00
2023-04-03T08:55:45.383Z,50.20
2023-04-03T08:58:53.937Z,48.90
2023-04-03T09:01:58.804Z,47.60
2023-04-03T09:05:02.577Z,45.30
2023-04-03T09:08:13.894Z,43.90
2023-04-03T09:11:24.132Z,44.50
2023-04-03T09:15:00.587Z,42.60
2023-04-03T09:18:21.867Z,41.10
2023-04-03T09:21:33.998Z,41.20
2023-04-03T09:24:37.997Z,40.40
2023-04-03T09:27:40.303Z,39.00
2023-04-03T09:30:42.570Z,39.00
2023-04-03T09:33:45.406Z,36.00
2023-04-03T09:36:56.137Z,35.10
2023-04-03T09:39:58.184Z,35.30
2023-04-03T09:43:03.190Z,35.00
2023-04-03T09:46:33.034Z,32.40
2023-04-03T09:49:35.106Z,30.60
2023-04-03T09:52:39.296Z,33.00
2023-04-03T09:55:45.769Z,30.20
2023-04-03T09:59:00.991Z,32.00
2023-04-03T10:02:35.587Z,33.70
2023-04-03T10:05:42.138Z,31.20
2023-04-03T10:08:44.282Z,31.40
2023-04-03T10:12:08.150Z,29.70
2023-04-03T10:15:15.189Z,30.30
2023-04-03T10:18:47.234Z,30.70
2023-04-03T10:21:59.185Z,29.40
2023-04-03T10:25:42.547Z,28.40
2023-04-03T10:29:00.873Z,27.10
2023-04-03T10:32:45.574Z,27.80
2023-04-03T10:36:05.750Z,27.00
2023-04-03T10:39:17.325Z,25.80
2023-04-03T10:42:39.726Z,25.60
2023-04-03T10:45:57.130Z,26.70
2023-04-03T10:49:17.823Z,26.70
2023-04-03T10:52:46.354Z,26.60
2023-04-03T10:55:54.423Z,27.20
2023-04-03T10:59:03.292Z,28.10
2023-04-03T11:02:32.571Z,24.10
2023-04-03T11:05:56.586Z,23.60
2023-04-03T11:09:00.065Z,22.50
2023-04-03T11:12:11.148Z,19.80
2023-04-03T11:15:20.848Z,23.20
2023-04-03T11:18:38.950Z,22.90
2023-04-03T11:22:08.310Z,22.20
2023-04-03T11:25:22.802Z,24.30
2023-04-03T11:28:25.132Z,22.00
2023-04-03T11:31:39.232Z,23.00
2023-04-03T11:34:45.814Z,22.90
2023-04-03T11:37:52.049Z,22.20
2023-04-03T11:40:56.359Z,21.80
2023-04-03T11:44:07.280Z,22.80
2023-04-03T11:47:12.932Z,23.70
2023-04-03T11:50:35.518Z,25.40
2023-04-03T11:53:40.305Z,26.50
2023-04-03T11:56:43.517Z,27.80
2023-04-03T11:59:45.606Z,29.70
2023-04-03T12:02:54.423Z,31.30
2023-04-03T12:05:58.822Z,30.70
2023-04-03T12:09:00.886Z,29.80
2023-04-03T12:12:42.909Z,31.30
2023-04-03T12:15:54.651Z,30.00
2023-04-03T12:19:06.520Z,30.70
2023-04-03T12:22:10.107Z,28.80
2023-04-03T12:25:51.345Z,32.30
2023-04-03T12:28:54.935Z,29.80
2023-04-03T12:32:11.942Z,31.40
2023-04-03T12:35:26.341Z,34.80
2023-04-03T12:38:50.654Z,37.00
2023-04-03T12:41:57.398Z,39.20
2023-04-03T12:45:22.329Z,40.20
2023-04-03T12:48:29.642Z,41.60
2023-04-03T12:51:43.195Z,51.90
2023-04-03T12:54:47.825Z,54.00
2023-04-03T12:57:50.347Z,55.00
2023-04-03T13:01:04.380Z,56.50
2023-04-03T13:04:06.623Z,59.20
2023-04-03T13:07:21.701Z,58.70
2023-04-03T13:10:23.714Z,59.30
2023-04-03T13:13:27.414Z,60.50
2023-04-03T13:16:29.984Z,61.40
2023-04-03T13:19:32.234Z,61.70
2023-04-03T13:22:40.478Z,61.50
2023-04-03T13:25:44.914Z,62.00
2023-04-03T13:28:48.262Z,63.00
2023-04-03T13:31:56.742Z,63.50
2023-04-03T13:35:08.226Z,62.80
2023-04-03T13:38:21.449Z,64.50
2023-04-03T13:41:36.221Z,66.40
2023-04-03T13:44:40.631Z,67.90
2023-04-03T13:47:44.968Z,68.80
2023-04-03T13:51:01.743Z,69.10
2023-04-03T13:54:20.890Z,69.80
2023-04-03T13:57:23.060Z,63.60
2023-04-03T14:00:51.697Z,62.80
2023-04-03T14:04:02.561Z,62.10
2023-04-03T14:07:04.982Z,62.50
2023-04-03T14:10:07.681Z,61.80
2023-04-03T14:13:17.609Z,61.80
2023-04-03T14:16:23.228Z,61.60
2023-04-03T14:19:31.570Z,60.50
2023-04-03T14:22:35.955Z,59.30
2023-04-03T14:25:40.297Z,58.80
2023-04-03T14:28:44.120Z,58.10
2023-04-03T14:31:55.510Z,56.10
2023-04-03T14:35:02.930Z,56.30
2023-04-03T14:38:16.400Z,57.90
2023-04-03T14:41:21.602Z,59.50
2023-04-03T14:44:24.522Z,58.90
2023-04-03T14:47:31.824Z,60.50
2023-04-03T14:50:35.617Z,63.00
2023-04-03T14:53:39.395Z,65.00
2023-04-03T14:56:41.681Z,65.20
2023-04-03T14:59:47.553Z,64.10
2023-04-03T15:02:51.099Z,65.30
2023-04-03T15:05:53.236Z,66.50
2023-04-03T15:08:55.386Z,67.20
2023-04-03T15:11:57.464Z,66.70
2023-04-03T15:15:02.723Z,67.10
2023-04-03T15:18:05.923Z,67.30
2023-04-03T15:21:08.189Z,66.80
2023-04-03T15:24:11.170Z,66.20
2023-04-03T15:27:14.308Z,66.00
2023-04-03T15:30:19.215Z,65.90
2023-04-03T15:33:21.569Z,66.00
2023-04-03T15:39:31.528Z,65.60
2023-04-03T15:42:33.817Z,65.10
2023-04-03T15:45:37.619Z,65.00
2023-04-03T15:48:40.230Z,65.20
2023-04-03T15:51:42.456Z,64.70
2023-04-03T15:54:44.434Z,64.10
2023-04-03T15:57:46.471Z,64.50
2023-04-03T16:00:48.836Z,64.80
2023-04-03T16:03:52.002Z,64.60
2023-04-03T16:06:54.303Z,68.50
2023-04-03T16:09:56.589Z,69.40
2023-04-03T16:12:58.666Z,69.50
2023-04-03T16:16:01.330Z,70.10
2023-04-03T16:19:04.084Z,70.40
2023-04-03T16:22:06.265Z,70.50
2023-04-03T16:25:10.715Z,69.50
2023-04-03T16:28:14.180Z,66.90
2023-04-03T16:31:17.182Z,66.70
2023-04-03T16:34:19.691Z,67.20
2023-04-03T16:37:21.797Z,69.70
2023-04-03T16:40:23.992Z,71.40
2023-04-03T16:43:28.240Z,71.40
2023-04-03T16:46:30.252Z,70.00
2023-04-03T16:49:35.006Z,69.00
2023-04-03T16:52:37.145Z,69.00
2023-04-03T16:55:40.641Z,68.40
2023-04-03T16:58:42.725Z,68.40
2023-04-03T17:01:44.938Z,68.20
2023-04-03T17:04:47.417Z,67.10
2023-04-03T17:07:50.089Z,66.90
2023-04-03T17:10:54.771Z,66.10
2023-04-03T17:13:57.123Z,65.00
2023-04-03T17:16:59.352Z,63.80
2023-04-03T17:20:01.805Z,65.40
2023-04-03T17:23:03.935Z,67.20
2023-04-03T17:26:06.411Z,68.80
2023-04-03T17:29:08.849Z,68.80
2023-04-03T17:32:11.018Z,67.30
2023-04-03T17:35:13.087Z,64.00
2023-04-03T17:38:15.250Z,64.20
2023-04-03T17:41:17.403Z,65.40
2023-04-03T17:44:19.452Z,65.00
2023-04-03T17:47:21.727Z,52.90
2023-04-03T17:50:23.847Z,44.30
2023-04-03T17:53:28.910Z,39.80
2023-04-03T17:56:31.016Z,38.00
2023-04-03T17:59:33.240Z,40.70
2023-04-03T18:02:37.233Z,41.50
2023-04-03T18:05:40.731Z,44.20
2023-04-03T18:08:50.295Z,43.90
2023-04-03T18:11:53.111Z,44.00
2023-04-03T18:14:56.769Z,42.10
2023-04-03T18:17:58.788Z,41.60
2023-04-03T18:21:00.999Z,42.60
2023-04-03T18:24:05.571Z,43.80
2023-04-03T18:27:14.598Z,46.60
2023-04-03T18:30:18.381Z,50.00
2023-04-03T18:33:20.687Z,52.80
2023-04-03T18:36:22.761Z,55.70
2023-04-03T18:39:26.898Z,57.90
2023-04-03T18:42:29.342Z,60.00
2023-04-03T18:45:32.065Z,61.80
2023-04-03T18:48:35.050Z,63.20
2023-04-03T18:51:39.389Z,65.60
2023-04-03T18:54:43.023Z,66.30
2023-04-03T18:57:46.481Z,66.10
2023-04-03T19:00:48.628Z,66.00
2023-04-03T19:03:50.879Z,65.80
2023-04-03T19:06:53.541Z,68.30
2023-04-03T19:09:55.900Z,69.60
2023-04-03T19:12:58.189Z,68.40
2023-04-03T19:16:00.439Z,68.70
2023-04-03T19:19:02.691Z,69.90
2023-04-03T19:22:05.081Z,72.80
2023-04-03T19:25:12.965Z,76.40
2023-04-03T19:28:15.231Z,78.90
2023-04-03T19:31:21.108Z,78.80
2023-04-03T19:34:23.230Z,80.20
2023-04-03T19:37:26.795Z,80.90
2023-04-03T19:40:30.093Z,82.30
2023-04-03T19:43:32.348Z,82.50
2023-04-03T19:46:35.309Z,86.00
2023-04-03T19:49:37.725Z,86.90
2023-04-03T19:52:39.767Z,88.00
2023-04-03T19:55:41.904Z,89.00
2023-04-03T20:01:46.863Z,90.10
2023-04-03T20:04:49.039Z,90.70
2023-04-03T20:07:53.779Z,90.50
2023-04-03T20:10:56.187Z,90.70
2023-04-03T20:13:58.233Z,90.80
2023-04-03T20:17:00.289Z,90.70
2023-04-03T20:20:04.104Z,90.70
2023-04-03T20:23:06.136Z,91.10
2023-04-03T20:26:12.258Z,91.80
2023-04-03T20:29:17.857Z,91.60
2023-04-03T20:32:19.881Z,91.50
2023-04-03T20:35:22.255Z,91.30
2023-04-03T20:38:24.921Z,91.60
2023-04-03T20:41:27.462Z,91.60
2023-04-03T20:44:31.277Z,91.80
2023-04-03T20:47:33.804Z,91.40
2023-04-03T20:50:36.500Z,91.10
2023-04-03T20:53:39.333Z,91.40
2023-04-03T20:56:41.439Z,91.70
2023-04-03T20:59:43.889Z,92.00
2023-04-03T21:02:50.047Z,92.90
2023-04-03T21:05:59.871Z,92.30
2023-04-03T21:09:39.308Z,92.90
2023-04-03T21:13:21.054Z,93.10
2023-04-03T21:16:22.963Z,93.20
2023-04-03T21:19:25.487Z,93.60
2023-04-03T21:22:27.631Z,93.40
2023-04-03T21:25:30.095Z,93.50
2023-04-03T21:28:32.694Z,93.60
2023-04-03T21:31:54.326Z,93.70
2023-04-03T21:34:56.613Z,93.60
2023-04-03T21:37:59.447Z,93.40
2023-04-03T21:41:08.292Z,93.60
2023-04-03T21:44:10.707Z,93.60
2023-04-03T21:47:13.892Z,93.80
2023-04-03T21:50:15.868Z,94.10
2023-04-03T21:53:19.632Z,94.50
2023-04-03T21:56:22.915Z,94.80
2023-04-03T21:59:25.381Z,94.80
2023-04-03T22:02:27.830Z,95.00
2023-04-03T22:05:32.270Z,95.10
2023-04-03T22:08:34.883Z,94.90
2023-04-03T22:11:40.400Z,95.50
2023-04-03T22:14:42.489Z,95.30
2023-04-03T22:17:45.089Z,95.60
2023-04-03T22:20:47.233Z,95.50
2023-04-03T22:23:49.402Z,95.20
2023-04-03T22:26:51.372Z,95.10
2023-04-03T22:29:53.464Z,95.00
2023-04-03T22:32:55.577Z,95.20
2023-04-03T22:35:57.762Z,95.10
2023-04-03T22:39:00.658Z,95.20
2023-04-03T22:42:07.488Z,95.10
2023-04-03T22:45:10.187Z,95.00
2023-04-03T22:48:12.860Z,95.10
2023-04-03T22:51:14.870Z,95.10
2023-04-03T22:54:16.851Z,95.30
2023-04-03T22:57:19.114Z,95.50
2023-04-03T23:00:21.211Z,95.50
2023-04-03T23:03:24.588Z,95.40
2023-04-03T23:06:27.231Z,95.60
2023-04-03T23:09:29.244Z,95.50
2023-04-03T23:12:36.710Z,95.30
2023-04-03T23:15:39.266Z,95.20
2023-04-03T23:18:43.973Z,95.10
2023-04-03T23:21:46.759Z,95.00
2023-04-03T23:24:48.788Z,95.00
2023-04-03T23:27:54.747Z,95.30
2023-04-03T23:31:02.596Z,95.20
2023-04-03T23:34:04.795Z,95.10
2023-04-03T23:37:08.915Z,94.90
2023-04-03T23:40:12.067Z,94.80
2023-04-03T23:43:14.487Z,94.80
2023-04-03T23:46:16.591Z,95.00
2023-04-03T23:49:18.599Z,95.10
2023-04-03T23:52:20.670Z,94.90
2023-04-03T23:55:24.144Z,94.80
2023-04-03T23:58:26.086Z,94.40
